LFLB 210400Z AUTO 02010KT 350V050 9999 BKN043 03/M04 Q1027 NOSIG

ElémentsDécodage
LFLB Station météo située sur l'aérodrome de CHAMBERY Aix-les-Bains
210400Z émis le 21 du mois à 04h00 UTC
AUTO Bulletin édité par un automate
02010KT vent du 020°, 10 noeuds
350V050 vent de direction variable entre 350° et 050°
9999 visibilité horizontale supérieure à 10 Km
BKN043 nuages morcelés (5/8 à 7/8) à 4300 pieds
03/M04 température 03°C, point de rosée -04°C
 soit une humidité relative de 60%
Q1027 la pression au niveau de la mer (QNH) est de 1027 hPa
NOSIG Pas de changement significatif prévu au cours des deux heures suivant l'heure de l'observation